ETD9402 LFBO-OMAA
Flight info
| Callsign | ETD9402 |
|---|---|
| Flight time | N/A |
| Altitude | 39000 |
| Route | AMOLO DCT DEGOL DCT FJR DCT AMFAC DCT BATIV DCT PELOS DCT IPROM DCT BELIX UM728 SALUN N705 MMA DCT DASUM T10 OBRAN L321 RALSU DCT REXUM DCT FYM M872 WEJ J874 MUSRI L604 UMENA DCT TABTA G663 KFA DCT LADNA N318 OVONA/N0444F350 N318 KAPUM N685 GIDOB |
| Aircraft | A21N/M-SDE2E3FGHIRWXY/LB1 |
Departure
| Time | 2026-04-27 17:02 |
|---|---|
| Airport | Toulouse-Blagnac Airport (LFBO) |
Arrival
| Time | N/A |
|---|---|
| Airport | Zayed International Airport (OMAA) |
| Time | Latitude | Longitude | Altitude | Speed | Heading |
|---|---|---|---|---|---|
| 2026-04-27 16:37 | 43.62201 | 1.37784 | 497 ft | 0 kts | 142° |
| 2026-04-27 16:52 | 43.62219 | 1.37765 | 491 ft | 3 kts | 142° |
| 2026-04-27 16:52 | 43.62234 | 1.37751 | 486 ft | 4 kts | 191° |
| 2026-04-27 16:52 | 43.62250 | 1.37769 | 486 ft | 4 kts | 232° |
| 2026-04-27 16:53 | 43.62260 | 1.37787 | 488 ft | 0 kts | 232° |
| 2026-04-27 16:58 | 43.62240 | 1.37751 | 486 ft | 7 kts | 233° |
| 2026-04-27 16:58 | 43.62201 | 1.37695 | 495 ft | 9 kts | 198° |
| 2026-04-27 16:58 | 43.62143 | 1.37728 | 492 ft | 11 kts | 140° |
| 2026-04-27 16:59 | 43.62076 | 1.37802 | 494 ft | 14 kts | 144° |
| 2026-04-27 16:59 | 43.61992 | 1.37886 | 497 ft | 17 kts | 143° |
| 2026-04-27 16:59 | 43.61891 | 1.37989 | 488 ft | 19 kts | 144° |
| 2026-04-27 16:59 | 43.61774 | 1.38106 | 488 ft | 22 kts | 141° |
| 2026-04-27 17:00 | 43.61631 | 1.38123 | 490 ft | 10 kts | 236° |
| 2026-04-27 17:00 | 43.61618 | 1.37969 | 489 ft | 11 kts | 309° |
| 2026-04-27 17:00 | 43.61645 | 1.37938 | 494 ft | 0 kts | 324° |
| 2026-04-27 17:01 | 43.61666 | 1.37917 | 489 ft | 18 kts | 323° |
| 2026-04-27 17:01 | 43.61925 | 1.37649 | 493 ft | 81 kts | 322° |
| 2026-04-27 17:01 | 43.62576 | 1.36966 | 489 ft | 153 kts | 323° |
| 2026-04-27 17:01 | 43.63524 | 1.36016 | 794 ft | 179 kts | 324° |
| 2026-04-27 17:02 | 43.64573 | 1.35021 | 1315 ft | 186 kts | 324° |
| 2026-04-27 17:02 | 43.65539 | 1.33948 | 2281 ft | 173 kts | 321° |
| 2026-04-27 17:02 | 43.66499 | 1.32840 | 2794 ft | 190 kts | 320° |
| 2026-04-27 17:02 | 43.67595 | 1.31596 | 3090 ft | 220 kts | 321° |
| 2026-04-27 17:03 | 43.69014 | 1.30421 | 3471 ft | 254 kts | 342° |
| 2026-04-27 17:03 | 43.70793 | 1.30401 | 4385 ft | 264 kts | 18° |
| 2026-04-27 17:03 | 43.72311 | 1.31844 | 5459 ft | 272 kts | 50° |
| 2026-04-27 17:03 | 43.73358 | 1.34051 | 6589 ft | 277 kts | 59° |
| 2026-04-27 17:04 | 43.74299 | 1.36411 | 7691 ft | 283 kts | 60° |
| 2026-04-27 17:04 | 43.75255 | 1.38817 | 8855 ft | 288 kts | 60° |
| 2026-04-27 17:04 | 43.76244 | 1.41258 | 9992 ft | 294 kts | 59° |
| 2026-04-27 17:04 | 43.77269 | 1.43748 | 10731 ft | 313 kts | 59° |
| 2026-04-27 17:05 | 43.78404 | 1.46481 | 11186 ft | 339 kts | 59° |
| 2026-04-27 17:05 | 43.79609 | 1.49371 | 11970 ft | 352 kts | 59° |
| 2026-04-27 17:05 | 43.80845 | 1.52332 | 12941 ft | 359 kts | 59° |
| 2026-04-27 17:05 | 43.81648 | 1.54344 | 13629 ft | 363 kts | 64° |
| 2026-04-27 17:06 | 43.82825 | 1.58782 | 14808 ft | 372 kts | 72° |
| 2026-04-27 17:06 | 43.83575 | 1.62242 | 15663 ft | 378 kts | 73° |
| 2026-04-27 17:06 | 43.84325 | 1.65768 | 16539 ft | 384 kts | 73° |
| 2026-04-27 17:06 | 43.85087 | 1.69340 | 17393 ft | 390 kts | 74° |
| 2026-04-27 17:07 | 43.85864 | 1.72966 | 18259 ft | 395 kts | 74° |
| 2026-04-27 17:07 | 43.86655 | 1.76645 | 19002 ft | 400 kts | 74° |
| 2026-04-27 17:07 | 43.87455 | 1.80359 | 19750 ft | 404 kts | 74° |
| 2026-04-27 17:07 | 43.88261 | 1.84109 | 20484 ft | 408 kts | 74° |
| 2026-04-27 17:08 | 43.89077 | 1.87902 | 21217 ft | 412 kts | 74° |
| 2026-04-27 17:08 | 43.89889 | 1.91683 | 21925 ft | 416 kts | 74° |
| 2026-04-27 17:08 | 43.90718 | 1.95553 | 22671 ft | 420 kts | 74° |
| 2026-04-27 17:08 | 43.91492 | 1.99468 | 23371 ft | 424 kts | 79° |
| 2026-04-27 17:09 | 43.91731 | 2.03546 | 23969 ft | 426 kts | 95° |
| 2026-04-27 17:09 | 43.91281 | 2.07610 | 24497 ft | 429 kts | 103° |
| 2026-04-27 17:09 | 43.90617 | 2.11662 | 25024 ft | 432 kts | 105° |
| 2026-04-27 17:09 | 43.89916 | 2.15734 | 25554 ft | 436 kts | 105° |
| 2026-04-27 17:10 | 43.89211 | 2.19845 | 26065 ft | 440 kts | 105° |
| 2026-04-27 17:10 | 43.88506 | 2.23989 | 26572 ft | 443 kts | 105° |
| 2026-04-27 17:10 | 43.87799 | 2.28168 | 27068 ft | 447 kts | 105° |
| 2026-04-27 17:10 | 43.87087 | 2.32380 | 27543 ft | 450 kts | 104° |
| 2026-04-27 17:11 | 43.86380 | 2.36572 | 28003 ft | 454 kts | 104° |
| 2026-04-27 17:11 | 43.84930 | 2.45139 | 28920 ft | 460 kts | 104° |
| 2026-04-27 17:11 | 43.84193 | 2.49480 | 29337 ft | 463 kts | 104° |
| 2026-04-27 17:12 | 43.82702 | 2.58223 | 30183 ft | 469 kts | 105° |
| 2026-04-27 17:12 | 43.81939 | 2.62634 | 30515 ft | 472 kts | 105° |
| 2026-04-27 17:12 | 43.81167 | 2.67075 | 30914 ft | 473 kts | 105° |
| 2026-04-27 17:13 | 43.80395 | 2.71503 | 31368 ft | 472 kts | 105° |
| 2026-04-27 17:13 | 43.79636 | 2.75856 | 31843 ft | 471 kts | 105° |
| 2026-04-27 17:13 | 43.78858 | 2.80317 | 32322 ft | 469 kts | 105° |
| 2026-04-27 17:13 | 43.78099 | 2.84660 | 32745 ft | 469 kts | 105° |
| 2026-04-27 17:14 | 43.77335 | 2.89038 | 33164 ft | 469 kts | 105° |
| 2026-04-27 17:14 | 43.76567 | 2.93424 | 33561 ft | 468 kts | 105° |
| 2026-04-27 17:14 | 43.75800 | 2.97799 | 33952 ft | 468 kts | 105° |
| 2026-04-27 17:14 | 43.75028 | 3.02188 | 34308 ft | 467 kts | 105° |
| 2026-04-27 17:15 | 43.74259 | 3.06554 | 34645 ft | 467 kts | 104° |
| 2026-04-27 17:15 | 43.73500 | 3.10848 | 35017 ft | 465 kts | 104° |
| 2026-04-27 17:15 | 43.72731 | 3.15187 | 35347 ft | 464 kts | 104° |
| 2026-04-27 17:15 | 43.71962 | 3.19520 | 35638 ft | 464 kts | 104° |
| 2026-04-27 17:16 | 43.71190 | 3.23860 | 35941 ft | 464 kts | 104° |
| 2026-04-27 17:16 | 43.70415 | 3.28205 | 36237 ft | 464 kts | 105° |
| 2026-04-27 17:16 | 43.69641 | 3.32536 | 36517 ft | 464 kts | 104° |
| 2026-04-27 17:16 | 43.68865 | 3.36861 | 36800 ft | 464 kts | 105° |
| 2026-04-27 17:17 | 43.68087 | 3.41188 | 37076 ft | 464 kts | 105° |
| 2026-04-27 17:17 | 43.67307 | 3.45514 | 37351 ft | 464 kts | 105° |
| 2026-04-27 17:17 | 43.66535 | 3.49788 | 37611 ft | 463 kts | 105° |
| 2026-04-27 17:18 | 43.64969 | 3.58428 | 38124 ft | 463 kts | 105° |
| 2026-04-27 17:18 | 43.64184 | 3.62744 | 38381 ft | 463 kts | 105° |
| 2026-04-27 17:18 | 43.63398 | 3.67055 | 38619 ft | 463 kts | 105° |
| 2026-04-27 17:18 | 43.62610 | 3.71367 | 38835 ft | 463 kts | 105° |
| 2026-04-27 17:19 | 43.62087 | 3.74220 | 38955 ft | 462 kts | 105° |
| 2026-04-27 17:19 | 43.61039 | 3.79935 | 39090 ft | 464 kts | 105° |
| 2026-04-27 17:19 | 43.59448 | 3.88563 | 39107 ft | 464 kts | 104° |
| 2026-04-27 17:20 | 43.57809 | 3.95591 | 39105 ft | 462 kts | 116° |
| 2026-04-27 17:20 | 43.56234 | 3.99445 | 39103 ft | 460 kts | 127° |
| 2026-04-27 17:20 | 43.54290 | 4.02941 | 39106 ft | 459 kts | 131° |
| 2026-04-27 17:21 | 43.50112 | 4.09611 | 39096 ft | 460 kts | 134° |
| 2026-04-27 17:21 | 43.45811 | 4.16148 | 39098 ft | 460 kts | 134° |
| 2026-04-27 17:22 | 43.41519 | 4.22684 | 39093 ft | 460 kts | 133° |
| 2026-04-27 17:22 | 43.37245 | 4.29244 | 39090 ft | 461 kts | 133° |
| 2026-04-27 17:23 | 43.32997 | 4.35776 | 39088 ft | 461 kts | 133° |
| 2026-04-27 17:23 | 43.28722 | 4.42338 | 39094 ft | 460 kts | 133° |
| 2026-04-27 17:24 | 43.24446 | 4.48884 | 39093 ft | 460 kts | 133° |
| 2026-04-27 17:24 | 43.20161 | 4.55426 | 39093 ft | 460 kts | 133° |
| 2026-04-27 17:25 | 43.15873 | 4.61957 | 39090 ft | 460 kts | 133° |
| 2026-04-27 17:25 | 43.11584 | 4.68475 | 39095 ft | 460 kts | 133° |
| 2026-04-27 17:26 | 43.07293 | 4.74982 | 39094 ft | 460 kts | 133° |
| 2026-04-27 17:26 | 43.03034 | 4.81427 | 39098 ft | 460 kts | 133° |
| 2026-04-27 17:27 | 42.98735 | 4.87917 | 39094 ft | 460 kts | 133° |
| 2026-04-27 17:27 | 42.94440 | 4.94387 | 39099 ft | 460 kts | 133° |
| 2026-04-27 17:28 | 42.90142 | 5.00845 | 39092 ft | 459 kts | 133° |
| 2026-04-27 17:29 | 42.84121 | 5.11015 | 39094 ft | 459 kts | 127° |
| 2026-04-27 17:29 | 42.80323 | 5.18013 | 39101 ft | 459 kts | 126° |
| 2026-04-27 17:30 | 42.76562 | 5.24984 | 39097 ft | 459 kts | 127° |
| 2026-04-27 17:30 | 42.70870 | 5.35474 | 39104 ft | 459 kts | 127° |
| 2026-04-27 17:31 | 42.67067 | 5.42448 | 39096 ft | 459 kts | 127° |
| 2026-04-27 17:31 | 42.63280 | 5.49374 | 39100 ft | 459 kts | 127° |
| 2026-04-27 17:32 | 42.57556 | 5.59812 | 39101 ft | 459 kts | 127° |
| 2026-04-27 17:33 | 42.53742 | 5.66749 | 39101 ft | 459 kts | 127° |
| 2026-04-27 17:33 | 42.49920 | 5.73682 | 39099 ft | 459 kts | 127° |
| 2026-04-27 17:34 | 42.46094 | 5.80608 | 39098 ft | 459 kts | 127° |
| 2026-04-27 17:34 | 42.42289 | 5.87480 | 39093 ft | 459 kts | 127° |
| 2026-04-27 17:35 | 42.38452 | 5.94393 | 39103 ft | 459 kts | 127° |
| 2026-04-27 17:35 | 42.34615 | 6.01289 | 39101 ft | 459 kts | 127° |
| 2026-04-27 17:36 | 42.30768 | 6.08189 | 39098 ft | 459 kts | 127° |
| 2026-04-27 17:36 | 42.26917 | 6.15080 | 39104 ft | 459 kts | 127° |
| 2026-04-27 17:37 | 42.23064 | 6.21960 | 39101 ft | 460 kts | 127° |
| 2026-04-27 17:37 | 42.19219 | 6.28808 | 39100 ft | 461 kts | 127° |
| 2026-04-27 17:38 | 42.15342 | 6.35698 | 39099 ft | 461 kts | 127° |
| 2026-04-27 17:38 | 42.11478 | 6.42596 | 39097 ft | 461 kts | 126° |
| 2026-04-27 17:39 | 42.07710 | 6.49599 | 39098 ft | 461 kts | 125° |
| 2026-04-27 17:39 | 42.03999 | 6.56576 | 39108 ft | 461 kts | 126° |
| 2026-04-27 17:40 | 42.00258 | 6.63575 | 39093 ft | 461 kts | 126° |
| 2026-04-27 17:40 | 41.96495 | 6.70575 | 39100 ft | 461 kts | 126° |
| 2026-04-27 17:41 | 41.92730 | 6.77552 | 39098 ft | 461 kts | 126° |
| 2026-04-27 17:41 | 41.88956 | 6.84528 | 39111 ft | 461 kts | 126° |
| 2026-04-27 17:42 | 41.85208 | 6.91444 | 39101 ft | 461 kts | 126° |
| 2026-04-27 17:42 | 41.81421 | 6.98414 | 39101 ft | 461 kts | 126° |
| 2026-04-27 17:43 | 41.77640 | 7.05358 | 39106 ft | 461 kts | 126° |
| 2026-04-27 17:43 | 41.73846 | 7.12311 | 39103 ft | 461 kts | 126° |
| 2026-04-27 17:44 | 41.70058 | 7.19236 | 39098 ft | 461 kts | 126° |
| 2026-04-27 17:44 | 41.66257 | 7.26169 | 39105 ft | 461 kts | 126° |
| 2026-04-27 17:45 | 41.62481 | 7.33041 | 39105 ft | 461 kts | 126° |
| 2026-04-27 17:45 | 41.58680 | 7.39942 | 39098 ft | 461 kts | 126° |
| 2026-04-27 17:46 | 41.54873 | 7.46841 | 39098 ft | 461 kts | 126° |
| 2026-04-27 17:46 | 41.51061 | 7.53730 | 39100 ft | 461 kts | 126° |
| 2026-04-27 17:47 | 41.47248 | 7.60608 | 39108 ft | 461 kts | 127° |
| 2026-04-27 17:47 | 41.43431 | 7.67477 | 39097 ft | 461 kts | 127° |
| 2026-04-27 17:48 | 41.39630 | 7.74302 | 39101 ft | 461 kts | 127° |
| 2026-04-27 17:48 | 41.35799 | 7.81165 | 39102 ft | 461 kts | 127° |
| 2026-04-27 17:49 | 41.31966 | 7.88016 | 39104 ft | 461 kts | 127° |
| 2026-04-27 17:49 | 41.28125 | 7.94866 | 39105 ft | 461 kts | 127° |
| 2026-04-27 17:50 | 41.24307 | 8.01660 | 39103 ft | 461 kts | 127° |
| 2026-04-27 17:50 | 41.18523 | 8.11916 | 39100 ft | 462 kts | 128° |
| 2026-04-27 17:51 | 41.13907 | 8.17780 | 39099 ft | 459 kts | 145° |
| 2026-04-27 17:51 | 41.09280 | 8.23540 | 39102 ft | 461 kts | 127° |
| 2026-04-27 17:52 | 41.07543 | 8.27111 | 39103 ft | 460 kts | 116° |
| 2026-04-27 17:52 | 41.06161 | 8.30938 | 39099 ft | 460 kts | 114° |
| 2026-04-27 17:52 | 41.04025 | 8.37409 | 39092 ft | 461 kts | 112° |
| 2026-04-27 17:53 | 41.01184 | 8.46539 | 39099 ft | 461 kts | 111° |
| 2026-04-27 17:53 | 40.98721 | 8.54387 | 39098 ft | 461 kts | 112° |
| 2026-04-27 17:54 | 40.96224 | 8.62224 | 39096 ft | 461 kts | 112° |
| 2026-04-27 17:54 | 40.93709 | 8.70053 | 39097 ft | 461 kts | 112° |
| 2026-04-27 17:55 | 40.91208 | 8.77811 | 39103 ft | 462 kts | 112° |
| 2026-04-27 17:55 | 40.88680 | 8.85635 | 39096 ft | 462 kts | 112° |
| 2026-04-27 17:56 | 40.86149 | 8.93451 | 39090 ft | 462 kts | 112° |
| 2026-04-27 17:56 | 40.83612 | 9.01260 | 39096 ft | 462 kts | 112° |
| 2026-04-27 17:57 | 40.81069 | 9.09067 | 39107 ft | 462 kts | 112° |
| 2026-04-27 17:57 | 40.78518 | 9.16875 | 39089 ft | 463 kts | 112° |
| 2026-04-27 17:58 | 40.75983 | 9.24615 | 39088 ft | 463 kts | 113° |
| 2026-04-27 17:58 | 40.73418 | 9.32425 | 39095 ft | 463 kts | 113° |
| 2026-04-27 17:59 | 40.70846 | 9.40232 | 39100 ft | 463 kts | 113° |
| 2026-04-27 17:59 | 40.68288 | 9.47976 | 39100 ft | 463 kts | 113° |
| 2026-04-27 18:00 | 40.65709 | 9.55760 | 39099 ft | 464 kts | 113° |
| 2026-04-27 18:00 | 40.63123 | 9.63544 | 39103 ft | 464 kts | 113° |
| 2026-04-27 18:01 | 40.60527 | 9.71336 | 39098 ft | 464 kts | 113° |
| 2026-04-27 18:01 | 40.57945 | 9.79068 | 39096 ft | 464 kts | 113° |
| 2026-04-27 18:02 | 40.55338 | 9.86849 | 39099 ft | 464 kts | 114° |
| 2026-04-27 18:02 | 40.52727 | 9.94621 | 39108 ft | 464 kts | 114° |
| 2026-04-27 18:03 | 40.50114 | 10.02377 | 39097 ft | 464 kts | 114° |
| 2026-04-27 18:03 | 40.47514 | 10.10076 | 39096 ft | 464 kts | 114° |
| 2026-04-27 18:04 | 40.44886 | 10.17833 | 39099 ft | 464 kts | 114° |
| 2026-04-27 18:04 | 40.42254 | 10.25584 | 39108 ft | 465 kts | 114° |
| 2026-04-27 18:05 | 40.39615 | 10.33331 | 39098 ft | 465 kts | 114° |
| 2026-04-27 18:05 | 40.36971 | 10.41073 | 39099 ft | 465 kts | 114° |
| 2026-04-27 18:06 | 40.34322 | 10.48808 | 39113 ft | 465 kts | 114° |
| 2026-04-27 18:06 | 40.31681 | 10.56499 | 39104 ft | 465 kts | 114° |
| 2026-04-27 18:07 | 40.29024 | 10.64217 | 39110 ft | 465 kts | 114° |
| 2026-04-27 18:07 | 40.26361 | 10.71929 | 39110 ft | 465 kts | 114° |
| 2026-04-27 18:08 | 40.24142 | 10.78340 | 39110 ft | 465 kts | 114° |
| 2026-04-27 18:08 | 40.21469 | 10.86045 | 39111 ft | 465 kts | 114° |
| 2026-04-27 18:09 | 40.18792 | 10.93739 | 39110 ft | 465 kts | 114° |
| 2026-04-27 18:09 | 40.16105 | 11.01442 | 39111 ft | 465 kts | 114° |
| 2026-04-27 18:10 | 40.13437 | 11.09070 | 39113 ft | 465 kts | 115° |
| 2026-04-27 18:10 | 40.10745 | 11.16746 | 39113 ft | 465 kts | 115° |
| 2026-04-27 18:11 | 40.08046 | 11.24419 | 39110 ft | 465 kts | 115° |
| 2026-04-27 18:11 | 40.05341 | 11.32091 | 39112 ft | 465 kts | 115° |
| 2026-04-27 18:12 | 40.02633 | 11.39753 | 39114 ft | 465 kts | 115° |
| 2026-04-27 18:12 | 39.99916 | 11.47416 | 39113 ft | 464 kts | 115° |
| 2026-04-27 18:13 | 39.97200 | 11.55060 | 39114 ft | 464 kts | 115° |
| 2026-04-27 18:13 | 39.94477 | 11.62701 | 39113 ft | 464 kts | 115° |
| 2026-04-27 18:14 | 39.91767 | 11.70285 | 39115 ft | 464 kts | 115° |
| 2026-04-27 18:14 | 39.89036 | 11.77908 | 39113 ft | 464 kts | 115° |
| 2026-04-27 18:15 | 39.86299 | 11.85529 | 39110 ft | 464 kts | 115° |
| 2026-04-27 18:15 | 39.83555 | 11.93149 | 39113 ft | 465 kts | 115° |
| 2026-04-27 18:16 | 39.80807 | 12.00760 | 39113 ft | 465 kts | 115° |
| 2026-04-27 18:16 | 39.78054 | 12.08365 | 39114 ft | 465 kts | 115° |
| 2026-04-27 18:17 | 39.75297 | 12.15962 | 39113 ft | 465 kts | 115° |
| 2026-04-27 18:17 | 39.72533 | 12.23559 | 39113 ft | 465 kts | 115° |
| 2026-04-27 18:18 | 39.69783 | 12.31095 | 39113 ft | 465 kts | 116° |
| 2026-04-27 18:18 | 39.67006 | 12.38688 | 39114 ft | 465 kts | 116° |
| 2026-04-27 18:19 | 39.64229 | 12.46263 | 39117 ft | 464 kts | 116° |
| 2026-04-27 18:19 | 39.61449 | 12.53823 | 39113 ft | 464 kts | 116° |
| 2026-04-27 18:20 | 39.58681 | 12.61332 | 39111 ft | 464 kts | 116° |
| 2026-04-27 18:20 | 39.55891 | 12.68882 | 39111 ft | 464 kts | 116° |
| 2026-04-27 18:21 | 39.53093 | 12.76434 | 39112 ft | 465 kts | 116° |
| 2026-04-27 18:21 | 39.50302 | 12.83951 | 39114 ft | 465 kts | 116° |
| 2026-04-27 18:22 | 39.47484 | 12.91516 | 39110 ft | 466 kts | 116° |
| 2026-04-27 18:22 | 39.44664 | 12.99070 | 39110 ft | 466 kts | 116° |
| 2026-04-27 18:23 | 39.41839 | 13.06618 | 39113 ft | 466 kts | 116° |
| 2026-04-27 18:23 | 39.39029 | 13.14108 | 39122 ft | 465 kts | 116° |
| 2026-04-27 18:24 | 39.36197 | 13.21638 | 39113 ft | 465 kts | 116° |
| 2026-04-27 18:24 | 39.33364 | 13.29149 | 39113 ft | 465 kts | 116° |
| 2026-04-27 18:25 | 39.30526 | 13.36656 | 39116 ft | 465 kts | 116° |
| 2026-04-27 18:25 | 39.27702 | 13.44107 | 39116 ft | 465 kts | 117° |
| 2026-04-27 18:26 | 39.24854 | 13.51603 | 39111 ft | 465 kts | 117° |
| 2026-04-27 18:26 | 39.21999 | 13.59098 | 39112 ft | 466 kts | 117° |
| 2026-04-27 18:27 | 39.19135 | 13.66600 | 39119 ft | 466 kts | 117° |
| 2026-04-27 18:27 | 39.16281 | 13.74054 | 39118 ft | 466 kts | 117° |
| 2026-04-27 18:28 | 39.13404 | 13.81552 | 39116 ft | 466 kts | 117° |
| 2026-04-27 18:28 | 39.10518 | 13.89052 | 39120 ft | 467 kts | 117° |
| 2026-04-27 18:29 | 39.07626 | 13.96551 | 39118 ft | 467 kts | 117° |
| 2026-04-27 18:29 | 39.04751 | 14.03989 | 39119 ft | 467 kts | 117° |
| 2026-04-27 18:30 | 39.01851 | 14.11471 | 39118 ft | 467 kts | 117° |
| 2026-04-27 18:30 | 38.98947 | 14.18946 | 39118 ft | 467 kts | 117° |
| 2026-04-27 18:31 | 38.96036 | 14.26419 | 39120 ft | 467 kts | 117° |
| 2026-04-27 18:31 | 38.93137 | 14.33843 | 39119 ft | 468 kts | 117° |
| 2026-04-27 18:32 | 38.90212 | 14.41317 | 39110 ft | 468 kts | 117° |
| 2026-04-27 18:32 | 38.87272 | 14.48810 | 39116 ft | 469 kts | 118° |
| 2026-04-27 18:33 | 38.84329 | 14.56291 | 39121 ft | 470 kts | 118° |
| 2026-04-27 18:33 | 38.81377 | 14.63779 | 39121 ft | 470 kts | 118° |
| 2026-04-27 18:34 | 38.78443 | 14.71203 | 39118 ft | 470 kts | 118° |
| 2026-04-27 18:34 | 38.75477 | 14.78687 | 39119 ft | 470 kts | 118° |
| 2026-04-27 18:35 | 38.72509 | 14.86161 | 39119 ft | 470 kts | 118° |
| 2026-04-27 18:35 | 38.69539 | 14.93621 | 39114 ft | 470 kts | 118° |
| 2026-04-27 18:36 | 38.66584 | 15.01023 | 39114 ft | 471 kts | 118° |
| 2026-04-27 18:36 | 38.63594 | 15.08498 | 39114 ft | 471 kts | 118° |
| 2026-04-27 18:37 | 38.60604 | 15.15953 | 39115 ft | 471 kts | 118° |
| 2026-04-27 18:37 | 38.57606 | 15.23410 | 39106 ft | 471 kts | 118° |
| 2026-04-27 18:38 | 38.54595 | 15.30884 | 39118 ft | 473 kts | 119° |
| 2026-04-27 18:38 | 38.51572 | 15.38365 | 39118 ft | 474 kts | 119° |
| 2026-04-27 18:39 | 38.48561 | 15.45802 | 39117 ft | 474 kts | 119° |
| 2026-04-27 18:39 | 38.45523 | 15.53286 | 39117 ft | 474 kts | 119° |
| 2026-04-27 18:40 | 38.42481 | 15.60762 | 39121 ft | 474 kts | 119° |
| 2026-04-27 18:40 | 38.39434 | 15.68235 | 39112 ft | 474 kts | 119° |
| 2026-04-27 18:41 | 38.36403 | 15.75646 | 39122 ft | 474 kts | 119° |
| 2026-04-27 18:41 | 38.33352 | 15.83092 | 39114 ft | 474 kts | 119° |
| 2026-04-27 18:42 | 38.30792 | 15.89326 | 39110 ft | 474 kts | 119° |
| 2026-04-27 18:42 | 38.27231 | 15.97976 | 39121 ft | 474 kts | 119° |
| 2026-04-27 18:43 | 38.24161 | 16.05414 | 39119 ft | 474 kts | 119° |
| 2026-04-27 18:43 | 38.21098 | 16.12818 | 39117 ft | 477 kts | 120° |
| 2026-04-27 18:44 | 38.17980 | 16.20334 | 39117 ft | 478 kts | 120° |
| 2026-04-27 18:44 | 38.14895 | 16.27754 | 39100 ft | 478 kts | 120° |
| 2026-04-27 18:45 | 38.11777 | 16.35238 | 39111 ft | 478 kts | 120° |
| 2026-04-27 18:45 | 38.08679 | 16.42655 | 39108 ft | 478 kts | 120° |
| 2026-04-27 18:46 | 38.05555 | 16.50117 | 39105 ft | 478 kts | 120° |
| 2026-04-27 18:46 | 38.02430 | 16.57565 | 39106 ft | 478 kts | 120° |
| 2026-04-27 18:47 | 37.99302 | 16.64999 | 39098 ft | 478 kts | 120° |
| 2026-04-27 18:47 | 37.96184 | 16.72395 | 39112 ft | 478 kts | 120° |
| 2026-04-27 18:48 | 37.93042 | 16.79829 | 39111 ft | 479 kts | 120° |
| 2026-04-27 18:48 | 37.89891 | 16.87267 | 39112 ft | 479 kts | 120° |
| 2026-04-27 18:49 | 37.86730 | 16.94713 | 39107 ft | 480 kts | 120° |
| 2026-04-27 18:49 | 37.83554 | 17.02175 | 39106 ft | 481 kts | 120° |
| 2026-04-27 18:50 | 37.80394 | 17.09583 | 39103 ft | 482 kts | 120° |
| 2026-04-27 18:50 | 37.77201 | 17.17051 | 39104 ft | 482 kts | 120° |
| 2026-04-27 18:51 | 37.74002 | 17.24514 | 39110 ft | 482 kts | 120° |
| 2026-04-27 18:51 | 37.70797 | 17.31974 | 39110 ft | 482 kts | 120° |